sensor_id;sensor_type;location;lat;lon;timestamp;pressure;altitude;pressure_sealevel;temperature;humidity
42603;BME280;28233;55.748;48.752;2024-02-23T00:01:56;100722.19;;;-12.60;83.22
42603;BME280;28233;55.748;48.752;2024-02-23T00:03:58;100729.25;;;-12.61;83.43
42603;BME280;28233;55.748;48.752;2024-02-23T00:06:01;100732.06;;;-12.62;83.62
42603;BME280;28233;55.748;48.752;2024-02-23T00:08:04;100727.91;;;-12.65;83.53
42603;BME280;28233;55.748;48.752;2024-02-23T00:10:07;100725.50;;;-12.68;83.18
42603;BME280;28233;55.748;48.752;2024-02-23T00:12:10;100737.09;;;-12.69;84.22
42603;BME280;28233;55.748;48.752;2024-02-23T00:14:13;100733.88;;;-12.72;83.41
42603;BME280;28233;55.748;48.752;2024-02-23T00:16:15;100739.31;;;-12.74;83.04
42603;BME280;28233;55.748;48.752;2024-02-23T00:18:18;100735.69;;;-12.73;83.32
42603;BME280;28233;55.748;48.752;2024-02-23T00:20:22;100741.13;;;-12.74;83.71
42603;BME280;28233;55.748;48.752;2024-02-23T00:22:25;100743.75;;;-12.74;82.69
42603;BME280;28233;55.748;48.752;2024-02-23T00:24:28;100741.56;;;-12.79;82.75
42603;BME280;28233;55.748;48.752;2024-02-23T00:26:31;100753.53;;;-12.85;82.67
42603;BME280;28233;55.748;48.752;2024-02-23T00:28:34;100747.28;;;-12.84;82.63
42603;BME280;28233;55.748;48.752;2024-02-23T00:30:36;100749.22;;;-12.86;82.33
42603;BME280;28233;55.748;48.752;2024-02-23T00:32:39;100741.81;;;-12.82;83.09
42603;BME280;28233;55.748;48.752;2024-02-23T00:34:41;100736.25;;;-12.89;81.57
42603;BME280;28233;55.748;48.752;2024-02-23T00:36:44;100743.22;;;-12.88;82.49
42603;BME280;28233;55.748;48.752;2024-02-23T00:38:47;100735.28;;;-12.88;82.22
42603;BME280;28233;55.748;48.752;2024-02-23T00:40:50;100742.41;;;-12.88;82.64
42603;BME280;28233;55.748;48.752;2024-02-23T00:42:52;100747.13;;;-12.92;82.58
42603;BME280;28233;55.748;48.752;2024-02-23T00:44:55;100740.19;;;-12.93;82.06
42603;BME280;28233;55.748;48.752;2024-02-23T00:46:57;100742.13;;;-12.95;82.47
42603;BME280;28233;55.748;48.752;2024-02-23T00:49:03;100735.44;;;-12.99;83.07
42603;BME280;28233;55.748;48.752;2024-02-23T00:51:06;100733.47;;;-12.97;81.18
42603;BME280;28233;55.748;48.752;2024-02-23T00:53:09;100741.41;;;-12.97;81.99
42603;BME280;28233;55.748;48.752;2024-02-23T00:55:12;100747.13;;;-12.92;83.52
42603;BME280;28233;55.748;48.752;2024-02-23T00:57:15;100746.28;;;-12.92;82.62
42603;BME280;28233;55.748;48.752;2024-02-23T00:59:18;100742.66;;;-12.91;83.69
42603;BME280;28233;55.748;48.752;2024-02-23T01:01:21;100745.19;;;-12.90;83.14
42603;BME280;28233;55.748;48.752;2024-02-23T01:03:23;100750.75;;;-12.93;83.47
42603;BME280;28233;55.748;48.752;2024-02-23T01:05:26;100749.47;;;-12.89;83.65
42603;BME280;28233;55.748;48.752;2024-02-23T01:07:28;100757.41;;;-12.89;84.02
42603;BME280;28233;55.748;48.752;2024-02-23T01:09:34;100752.13;;;-12.89;83.13
42603;BME280;28233;55.748;48.752;2024-02-23T01:11:37;100744.19;;;-12.89;84.70
42603;BME280;28233;55.748;48.752;2024-02-23T01:13:40;100754.53;;;-12.86;82.79
42603;BME280;28233;55.748;48.752;2024-02-23T01:15:42;100742.41;;;-12.88;82.48
42603;BME280;28233;55.748;48.752;2024-02-23T01:17:45;100756.31;;;-12.86;83.14
42603;BME280;28233;55.748;48.752;2024-02-23T01:19:48;100751.31;;;-12.89;82.67
42603;BME280;28233;55.748;48.752;2024-02-23T01:21:50;100746.72;;;-12.87;82.85
42603;BME280;28233;55.748;48.752;2024-02-23T01:24:01;100744.88;;;-12.87;83.40
42603;BME280;28233;55.748;48.752;2024-02-23T01:26:04;100747.53;;;-12.87;82.33
42603;BME280;28233;55.748;48.752;2024-02-23T01:28:07;100746.72;;;-12.87;83.21
42603;BME280;28233;55.748;48.752;2024-02-23T01:30:10;100744.19;;;-12.89;82.30
42603;BME280;28233;55.748;48.752;2024-02-23T01:32:13;100750.19;;;-12.87;82.56
42603;BME280;28233;55.748;48.752;2024-02-23T01:34:15;100752.28;;;-12.81;83.63
42603;BME280;28233;55.748;48.752;2024-02-23T01:36:18;100758.28;;;-12.79;83.33
42603;BME280;28233;55.748;48.752;2024-02-23T01:38:21;100752.81;;;-12.77;83.23
42603;BME280;28233;55.748;48.752;2024-02-23T01:40:24;100758.13;;;-12.77;83.59
42603;BME280;28233;55.748;48.752;2024-02-23T01:42:27;100763.69;;;-12.80;83.04
42603;BME280;28233;55.748;48.752;2024-02-23T01:44:29;100765.22;;;-12.78;82.94
42603;BME280;28233;55.748;48.752;2024-02-23T01:46:32;100756.47;;;-12.78;83.22
42603;BME280;28233;55.748;48.752;2024-02-23T01:48:35;100766.91;;;-12.77;83.06
42603;BME280;28233;55.748;48.752;2024-02-23T01:50:38;100757.44;;;-12.79;82.10
42603;BME280;28233;55.748;48.752;2024-02-23T01:52:41;100762.75;;;-12.79;81.51
42603;BME280;28233;55.748;48.752;2024-02-23T01:54:45;100759.22;;;-12.80;83.44
42603;BME280;28233;55.748;48.752;2024-02-23T01:56:48;100763.28;;;-12.75;83.29
42603;BME280;28233;55.748;48.752;2024-02-23T01:58:51;100762.03;;;-12.81;82.18
42603;BME280;28233;55.748;48.752;2024-02-23T02:00:54;100762.03;;;-12.81;83.45
42603;BME280;28233;55.748;48.752;2024-02-23T02:02:57;100760.91;;;-12.79;83.00
42603;BME280;28233;55.748;48.752;2024-02-23T02:05:00;100755.34;;;-12.75;83.21
42603;BME280;28233;55.748;48.752;2024-02-23T02:07:04;100767.44;;;-12.73;82.79
42603;BME280;28233;55.748;48.752;2024-02-23T02:09:07;100752.56;;;-12.74;82.63
42603;BME280;28233;55.748;48.752;2024-02-23T02:11:09;100758.69;;;-12.73;83.03
42603;BME280;28233;55.748;48.752;2024-02-23T02:13:12;100748.22;;;-12.75;83.17
42603;BME280;28233;55.748;48.752;2024-02-23T02:15:15;100753.53;;;-12.75;82.56
42603;BME280;28233;55.748;48.752;2024-02-23T02:17:18;100752.69;;;-12.75;82.88
42603;BME280;28233;55.748;48.752;2024-02-23T02:19:21;100755.22;;;-12.74;83.42
42603;BME280;28233;55.748;48.752;2024-02-23T02:21:24;100746.69;;;-12.78;82.78
42603;BME280;28233;55.748;48.752;2024-02-23T02:23:28;100749.63;;;-12.71;82.63
42603;BME280;28233;55.748;48.752;2024-02-23T02:25:31;100759.63;;;-12.74;82.40
42603;BME280;28233;55.748;48.752;2024-02-23T02:27:33;100753.94;;;-12.70;83.96
42603;BME280;28233;55.748;48.752;2024-02-23T02:29:36;100762.44;;;-12.66;83.34
42603;BME280;28233;55.748;48.752;2024-02-23T02:31:39;100759.91;;;-12.68;82.95
42603;BME280;28233;55.748;48.752;2024-02-23T02:33:41;100758.13;;;-12.67;84.20
42603;BME280;28233;55.748;48.752;2024-02-23T02:35:44;100748.38;;;-12.67;84.19
42603;BME280;28233;55.748;48.752;2024-02-23T02:37:47;100749.34;;;-12.68;82.76
42603;BME280;28233;55.748;48.752;2024-02-23T02:39:50;100752.13;;;-12.69;83.29
42603;BME280;28233;55.748;48.752;2024-02-23T02:41:53;100758.56;;;-12.72;82.89
42603;BME280;28233;55.748;48.752;2024-02-23T02:43:55;100751.97;;;-12.68;84.18
42603;BME280;28233;55.748;48.752;2024-02-23T02:45:58;100752.69;;;-12.66;83.30
42603;BME280;28233;55.748;48.752;2024-02-23T02:48:01;100757.16;;;-12.66;81.98
42603;BME280;28233;55.748;48.752;2024-02-23T02:50:07;100754.63;;;-12.68;82.21
42603;BME280;28233;55.748;48.752;2024-02-23T02:52:10;100754.63;;;-12.68;83.57
42603;BME280;28233;55.748;48.752;2024-02-23T02:54:13;100758.97;;;-12.67;82.98
42603;BME280;28233;55.748;48.752;2024-02-23T02:56:15;100759.66;;;-12.65;83.96
42603;BME280;28233;55.748;48.752;2024-02-23T02:58:18;100766.06;;;-12.58;85.03
42603;BME280;28233;55.748;48.752;2024-02-23T03:00:21;100775.66;;;-12.57;83.78
42603;BME280;28233;55.748;48.752;2024-02-23T03:02:23;100767.84;;;-12.58;83.84
42603;BME280;28233;55.748;48.752;2024-02-23T03:04:26;100768.84;;;-12.59;83.49
42603;BME280;28233;55.748;48.752;2024-02-23T03:06:29;100775.78;;;-12.58;84.02
42603;BME280;28233;55.748;48.752;2024-02-23T03:08:31;100768.00;;;-12.60;84.03
42603;BME280;28233;55.748;48.752;2024-02-23T03:10:34;100776.09;;;-12.61;83.15
42603;BME280;28233;55.748;48.752;2024-02-23T03:12:36;100775.25;;;-12.62;82.28
42603;BME280;28233;55.748;48.752;2024-02-23T03:14:39;100772.75;;;-12.63;82.21
42603;BME280;28233;55.748;48.752;2024-02-23T03:16:43;100776.66;;;-12.67;81.42
42603;BME280;28233;55.748;48.752;2024-02-23T03:18:45;100775.97;;;-12.69;82.63
42603;BME280;28233;55.748;48.752;2024-02-23T03:20:48;100774.97;;;-12.68;83.48
42603;BME280;28233;55.748;48.752;2024-02-23T03:22:51;100779.84;;;-12.64;83.84
42603;BME280;28233;55.748;48.752;2024-02-23T03:24:53;100776.38;;;-12.64;82.69
42603;BME280;28233;55.748;48.752;2024-02-23T03:26:56;100772.75;;;-12.63;82.99
42603;BME280;28233;55.748;48.752;2024-02-23T03:28:59;100782.09;;;-12.69;82.89
42603;BME280;28233;55.748;48.752;2024-02-23T03:31:02;100785.56;;;-12.68;83.15
42603;BME280;28233;55.748;48.752;2024-02-23T03:33:04;100781.38;;;-12.71;83.57
42603;BME280;28233;55.748;48.752;2024-02-23T03:35:07;100782.22;;;-12.70;82.61
42603;BME280;28233;55.748;48.752;2024-02-23T03:37:11;100783.63;;;-12.66;83.09
42603;BME280;28233;55.748;48.752;2024-02-23T03:39:14;100780.81;;;-12.74;81.81
42603;BME280;28233;55.748;48.752;2024-02-23T03:41:16;100790.31;;;-12.72;83.04
42603;BME280;28233;55.748;48.752;2024-02-23T03:43:19;100791.28;;;-12.73;82.49
42603;BME280;28233;55.748;48.752;2024-02-23T03:45:21;100785.44;;;-12.77;82.74
42603;BME280;28233;55.748;48.752;2024-02-23T03:47:24;100790.44;;;-12.73;83.01
42603;BME280;28233;55.748;48.752;2024-02-23T03:49:27;100802.84;;;-12.64;83.78
42603;BME280;28233;55.748;48.752;2024-02-23T03:51:29;100796.56;;;-12.63;83.07
42603;BME280;28233;55.748;48.752;2024-02-23T03:53:32;100801.19;;;-12.56;83.98
42603;BME280;28233;55.748;48.752;2024-02-23T03:55:35;100805.34;;;-12.53;83.05
42603;BME280;28233;55.748;48.752;2024-02-23T03:57:37;100817.31;;;-12.49;83.93
42603;BME280;28233;55.748;48.752;2024-02-23T03:59:51;100807.59;;;-12.48;83.51
42603;BME280;28233;55.748;48.752;2024-02-23T04:01:54;100814.66;;;-12.49;82.82
42603;BME280;28233;55.748;48.752;2024-02-23T04:03:57;100802.72;;;-12.53;83.13
42603;BME280;28233;55.748;48.752;2024-02-23T04:06:00;100804.91;;;-12.58;83.22
42603;BME280;28233;55.748;48.752;2024-02-23T04:08:03;100818.84;;;-12.56;83.30
42603;BME280;28233;55.748;48.752;2024-02-23T04:10:08;100810.38;;;-12.60;81.05
42603;BME280;28233;55.748;48.752;2024-02-23T04:12:10;100806.72;;;-12.59;82.83
42603;BME280;28233;55.748;48.752;2024-02-23T04:14:13;100811.19;;;-12.59;81.84
42603;BME280;28233;55.748;48.752;2024-02-23T04:16:16;100815.66;;;-12.60;81.29
42603;BME280;28233;55.748;48.752;2024-02-23T04:18:18;100811.50;;;-12.62;82.25
42603;BME280;28233;55.748;48.752;2024-02-23T04:20:21;100807.44;;;-12.66;81.55
42603;BME280;28233;55.748;48.752;2024-02-23T04:22:24;100817.91;;;-12.65;81.85
42603;BME280;28233;55.748;48.752;2024-02-23T04:24:26;100824.44;;;-12.59;82.53
42603;BME280;28233;55.748;48.752;2024-02-23T04:26:29;100819.00;;;-12.58;81.71
42603;BME280;28233;55.748;48.752;2024-02-23T04:28:31;100814.97;;;-12.52;82.63
42603;BME280;28233;55.748;48.752;2024-02-23T04:30:36;100815.09;;;-12.53;81.63
42603;BME280;28233;55.748;48.752;2024-02-23T04:32:39;100816.91;;;-12.54;81.82
42603;BME280;28233;55.748;48.752;2024-02-23T04:34:41;100839.06;;;-12.55;80.79
42603;BME280;28233;55.748;48.752;2024-02-23T04:36:44;100825.00;;;-12.56;81.30
42603;BME280;28233;55.748;48.752;2024-02-23T04:38:47;100838.09;;;-12.54;80.43
42603;BME280;28233;55.748;48.752;2024-02-23T04:40:49;100828.91;;;-12.50;81.56
42603;BME280;28233;55.748;48.752;2024-02-23T04:42:52;100842.13;;;-12.50;80.98
42603;BME280;28233;55.748;48.752;2024-02-23T04:44:54;100834.88;;;-12.48;81.40
42603;BME280;28233;55.748;48.752;2024-02-23T04:46:57;100837.38;;;-12.46;80.58
42603;BME280;28233;55.748;48.752;2024-02-23T04:49:00;100834.88;;;-12.48;78.93
42603;BME280;28233;55.748;48.752;2024-02-23T04:51:03;100829.59;;;-12.48;80.93
42603;BME280;28233;55.748;48.752;2024-02-23T04:53:06;100844.91;;;-12.42;80.52
42603;BME280;28233;55.748;48.752;2024-02-23T04:55:10;100838.66;;;-12.41;80.32
42603;BME280;28233;55.748;48.752;2024-02-23T04:57:12;100838.50;;;-12.39;79.93
42603;BME280;28233;55.748;48.752;2024-02-23T04:59:15;100842.41;;;-12.43;78.44
42603;BME280;28233;55.748;48.752;2024-02-23T05:01:18;100843.13;;;-12.41;79.75
42603;BME280;28233;55.748;48.752;2024-02-23T05:03:21;100836.84;;;-12.40;79.63
42603;BME280;28233;55.748;48.752;2024-02-23T05:05:24;100846.88;;;-12.34;80.94
42603;BME280;28233;55.748;48.752;2024-02-23T05:07:27;100840.16;;;-12.28;81.23
42603;BME280;28233;55.748;48.752;2024-02-23T05:09:29;100839.31;;;-12.19;82.08
42603;BME280;28233;55.748;48.752;2024-02-23T05:11:32;100847.66;;;-12.14;81.33
42603;BME280;28233;55.748;48.752;2024-02-23T05:13:35;100851.03;;;-12.12;79.89
42603;BME280;28233;55.748;48.752;2024-02-23T05:15:38;100854.78;;;-12.05;82.13
42603;BME280;28233;55.748;48.752;2024-02-23T05:17:41;100847.09;;;-11.98;81.16
42603;BME280;28233;55.748;48.752;2024-02-23T05:19:43;100849.59;;;-11.87;81.93
42603;BME280;28233;55.748;48.752;2024-02-23T05:21:46;100856.50;;;-11.86;80.13
42603;BME280;28233;55.748;48.752;2024-02-23T05:23:48;100853.84;;;-11.86;80.25
42603;BME280;28233;55.748;48.752;2024-02-23T05:25:52;100860.13;;;-11.77;80.86
42603;BME280;28233;55.748;48.752;2024-02-23T05:27:54;100858.56;;;-11.70;81.45
42603;BME280;28233;55.748;48.752;2024-02-23T05:29:57;100865.09;;;-11.64;80.55
42603;BME280;28233;55.748;48.752;2024-02-23T05:32:00;100859.38;;;-11.60;80.02
42603;BME280;28233;55.748;48.752;2024-02-23T05:34:02;100857.53;;;-11.59;79.21
42603;BME280;28233;55.748;48.752;2024-02-23T05:36:05;100870.66;;;-11.58;79.01
42603;BME280;28233;55.748;48.752;2024-02-23T05:38:08;100867.28;;;-11.50;80.25
42603;BME280;28233;55.748;48.752;2024-02-23T05:40:11;100868.28;;;-11.51;77.47
42603;BME280;28233;55.748;48.752;2024-02-23T05:42:13;100874.97;;;-11.47;79.24
42603;BME280;28233;55.748;48.752;2024-02-23T05:44:16;100867.53;;;-11.43;78.86
42603;BME280;28233;55.748;48.752;2024-02-23T05:46:19;100876.50;;;-11.44;78.28
42603;BME280;28233;55.748;48.752;2024-02-23T05:48:23;100878.00;;;-11.42;78.75
42603;BME280;28233;55.748;48.752;2024-02-23T05:50:26;100874.63;;;-11.34;79.18
42603;BME280;28233;55.748;48.752;2024-02-23T05:52:32;100871.97;;;-11.34;78.11
42603;BME280;28233;55.748;48.752;2024-02-23T05:54:35;100891.63;;;-11.27;78.92
42603;BME280;28233;55.748;48.752;2024-02-23T05:56:38;100884.75;;;-11.20;78.93
42603;BME280;28233;55.748;48.752;2024-02-23T05:58:40;100892.44;;;-11.17;78.80
42603;BME280;28233;55.748;48.752;2024-02-23T06:00:43;100903.69;;;-11.05;78.78
42603;BME280;28233;55.748;48.752;2024-02-23T06:02:45;100897.09;;;-11.01;79.16
42603;BME280;28233;55.748;48.752;2024-02-23T06:04:48;100910.31;;;-10.91;79.79
42603;BME280;28233;55.748;48.752;2024-02-23T06:06:51;100899.94;;;-10.85;79.53
42603;BME280;28233;55.748;48.752;2024-02-23T06:08:54;100901.00;;;-10.77;77.46
42603;BME280;28233;55.748;48.752;2024-02-23T06:10:56;100920.97;;;-10.73;77.66
42603;BME280;28233;55.748;48.752;2024-02-23T06:13:01;100908.25;;;-10.70;76.48
42603;BME280;28233;55.748;48.752;2024-02-23T06:15:06;100900.13;;;-10.68;76.98
42603;BME280;28233;55.748;48.752;2024-02-23T06:17:09;100913.50;;;-10.60;76.86
42603;BME280;28233;55.748;48.752;2024-02-23T06:19:12;100912.59;;;-10.51;76.79
42603;BME280;28233;55.748;48.752;2024-02-23T06:21:15;100909.50;;;-10.46;77.64
42603;BME280;28233;55.748;48.752;2024-02-23T06:23:18;100912.06;;;-10.36;76.85
42603;BME280;28233;55.748;48.752;2024-02-23T06:25:21;100913.41;;;-10.32;75.14
42603;BME280;28233;55.748;48.752;2024-02-23T06:27:23;100912.94;;;-10.28;76.56
42603;BME280;28233;55.748;48.752;2024-02-23T06:29:27;100910.88;;;-10.16;76.80
42603;BME280;28233;55.748;48.752;2024-02-23T06:31:30;100924.72;;;-10.12;75.81
42603;BME280;28233;55.748;48.752;2024-02-23T06:33:33;100913.31;;;-10.05;77.79
42603;BME280;28233;55.748;48.752;2024-02-23T06:35:36;100921.38;;;-9.96;75.44
42603;BME280;28233;55.748;48.752;2024-02-23T06:37:38;100926.91;;;-9.90;77.58
42603;BME280;28233;55.748;48.752;2024-02-23T06:39:41;100926.81;;;-9.80;76.89
42603;BME280;28233;55.748;48.752;2024-02-23T06:41:44;100927.53;;;-9.70;76.53
42603;BME280;28233;55.748;48.752;2024-02-23T06:43:46;100930.75;;;-9.66;76.14
42603;BME280;28233;55.748;48.752;2024-02-23T06:45:49;100929.59;;;-9.64;75.72
42603;BME280;28233;55.748;48.752;2024-02-23T06:47:52;100928.81;;;-9.56;76.34
42603;BME280;28233;55.748;48.752;2024-02-23T06:49:54;100929.16;;;-9.51;75.36
42603;BME280;28233;55.748;48.752;2024-02-23T06:51:57;100921.88;;;-9.49;74.49
42603;BME280;28233;55.748;48.752;2024-02-23T06:54:00;100937.22;;;-9.43;73.11
42603;BME280;28233;55.748;48.752;2024-02-23T06:56:02;100937.00;;;-9.23;77.18
42603;BME280;28233;55.748;48.752;2024-02-23T06:58:05;100930.06;;;-9.08;77.52
42603;BME280;28233;55.748;48.752;2024-02-23T07:00:10;100931.16;;;-8.93;76.09
42603;BME280;28233;55.748;48.752;2024-02-23T07:02:13;100935.88;;;-8.78;76.35
42603;BME280;28233;55.748;48.752;2024-02-23T07:04:16;100936.69;;;-8.78;74.12
42603;BME280;28233;55.748;48.752;2024-02-23T07:06:19;100942.56;;;-8.66;75.96
42603;BME280;28233;55.748;48.752;2024-02-23T07:08:22;100943.44;;;-8.57;74.94
42603;BME280;28233;55.748;48.752;2024-02-23T07:10:24;100942.66;;;-8.41;76.71
42603;BME280;28233;55.748;48.752;2024-02-23T07:12:27;100940.44;;;-8.38;74.49
42603;BME280;28233;55.748;48.752;2024-02-23T07:14:31;100955.63;;;-8.30;75.01
42603;BME280;28233;55.748;48.752;2024-02-23T07:16:37;100940.00;;;-8.25;73.82
42603;BME280;28233;55.748;48.752;2024-02-23T07:18:41;100951.81;;;-8.19;74.01
42603;BME280;28233;55.748;48.752;2024-02-23T07:20:44;100950.84;;;-8.10;75.71
42603;BME280;28233;55.748;48.752;2024-02-23T07:22:47;100951.34;;;-8.06;70.50
42603;BME280;28233;55.748;48.752;2024-02-23T07:24:49;100955.53;;;-7.96;72.92
42603;BME280;28233;55.748;48.752;2024-02-23T07:26:52;100956.69;;;-7.82;75.49
42603;BME280;28233;55.748;48.752;2024-02-23T07:28:55;100965.34;;;-7.72;75.28
42603;BME280;28233;55.748;48.752;2024-02-23T07:30:58;100953.50;;;-7.69;74.52
42603;BME280;28233;55.748;48.752;2024-02-23T07:33:00;100959.03;;;-7.62;71.24
42603;BME280;28233;55.748;48.752;2024-02-23T07:35:04;100951.84;;;-7.62;72.65
42603;BME280;28233;55.748;48.752;2024-02-23T07:37:06;100951.38;;;-7.66;71.36
42603;BME280;28233;55.748;48.752;2024-02-23T07:39:09;100952.53;;;-7.68;70.59
42603;BME280;28233;55.748;48.752;2024-02-23T07:41:12;100957.03;;;-7.60;71.51
42603;BME280;28233;55.748;48.752;2024-02-23T07:43:18;100952.34;;;-7.58;71.14
42603;BME280;28233;55.748;48.752;2024-02-23T07:45:20;100953.53;;;-7.61;70.83
42603;BME280;28233;55.748;48.752;2024-02-23T07:47:23;100956.38;;;-7.54;72.64
42603;BME280;28233;55.748;48.752;2024-02-23T07:49:29;100964.69;;;-7.49;71.22
42603;BME280;28233;55.748;48.752;2024-02-23T07:51:32;100963.69;;;-7.40;72.81
42603;BME280;28233;55.748;48.752;2024-02-23T07:53:34;100958.00;;;-7.29;72.95
42603;BME280;28233;55.748;48.752;2024-02-23T07:55:37;100960.47;;;-7.19;73.27
42603;BME280;28233;55.748;48.752;2024-02-23T07:57:40;100965.78;;;-7.11;72.81
42603;BME280;28233;55.748;48.752;2024-02-23T07:59:42;100963.94;;;-7.10;71.77
42603;BME280;28233;55.748;48.752;2024-02-23T08:01:45;100966.47;;;-7.09;71.68
42603;BME280;28233;55.748;48.752;2024-02-23T08:03:48;100961.75;;;-6.98;72.65
42603;BME280;28233;55.748;48.752;2024-02-23T08:05:51;100962.91;;;-6.93;70.49
42603;BME280;28233;55.748;48.752;2024-02-23T08:07:54;100963.91;;;-6.86;71.60
42603;BME280;28233;55.748;48.752;2024-02-23T08:09:57;100968.69;;;-6.73;72.45
42603;BME280;28233;55.748;48.752;2024-02-23T08:11:59;100967.50;;;-6.70;72.35
42603;BME280;28233;55.748;48.752;2024-02-23T08:14:02;100967.84;;;-6.73;68.62
42603;BME280;28233;55.748;48.752;2024-02-23T08:16:09;100963.34;;;-6.73;71.10
42603;BME280;28233;55.748;48.752;2024-02-23T08:18:15;100965.69;;;-6.70;69.54
42603;BME280;28233;55.748;48.752;2024-02-23T08:20:28;100975.34;;;-6.69;71.06
42603;BME280;28233;55.748;48.752;2024-02-23T08:22:31;100973.50;;;-6.68;71.04
42603;BME280;28233;55.748;48.752;2024-02-23T08:24:34;100964.31;;;-6.66;69.58
42603;BME280;28233;55.748;48.752;2024-02-23T08:26:37;100972.44;;;-6.51;71.96
42603;BME280;28233;55.748;48.752;2024-02-23T08:28:41;100973.56;;;-6.45;71.93
42603;BME280;28233;55.748;48.752;2024-02-23T08:30:44;100984.34;;;-6.30;73.17
42603;BME280;28233;55.748;48.752;2024-02-23T08:32:53;100974.00;;;-6.25;71.34
42603;BME280;28233;55.748;48.752;2024-02-23T08:34:59;100974.97;;;-6.26;69.81
42603;BME280;28233;55.748;48.752;2024-02-23T08:37:03;100970.47;;;-6.26;70.32
42603;BME280;28233;55.748;48.752;2024-02-23T08:39:06;100969.50;;;-6.33;68.47
42603;BME280;28233;55.748;48.752;2024-02-23T08:41:10;100970.34;;;-6.32;68.26
42603;BME280;28233;55.748;48.752;2024-02-23T08:43:15;100975.38;;;-6.38;67.77
42603;BME280;28233;55.748;48.752;2024-02-23T08:45:18;100979.75;;;-6.45;68.21
42603;BME280;28233;55.748;48.752;2024-02-23T08:47:20;100975.91;;;-6.42;68.36
42603;BME280;28233;55.748;48.752;2024-02-23T08:49:23;100976.91;;;-6.43;68.30
42603;BME280;28233;55.748;48.752;2024-02-23T08:51:26;100978.25;;;-6.39;69.34
42603;BME280;28233;55.748;48.752;2024-02-23T08:53:29;100970.00;;;-6.29;70.90
42603;BME280;28233;55.748;48.752;2024-02-23T08:55:32;100973.09;;;-6.18;70.94
42603;BME280;28233;55.748;48.752;2024-02-23T08:57:35;100963.34;;;-6.10;69.56
42603;BME280;28233;55.748;48.752;2024-02-23T08:59:38;100971.31;;;-6.02;71.48
42603;BME280;28233;55.748;48.752;2024-02-23T09:01:41;100970.34;;;-5.86;72.38
42603;BME280;28233;55.748;48.752;2024-02-23T09:03:44;100977.06;;;-5.90;70.19
42603;BME280;28233;55.748;48.752;2024-02-23T09:05:50;100979.41;;;-5.87;70.28
42603;BME280;28233;55.748;48.752;2024-02-23T09:07:53;100979.53;;;-5.81;70.60
42603;BME280;28233;55.748;48.752;2024-02-23T09:09:56;100981.88;;;-5.63;73.05
42603;BME280;28233;55.748;48.752;2024-02-23T09:11:59;100983.44;;;-5.45;72.98
42603;BME280;28233;55.748;48.752;2024-02-23T09:14:02;100982.41;;;-5.44;66.85
42603;BME280;28233;55.748;48.752;2024-02-23T09:16:06;100974.94;;;-5.34;71.65
42603;BME280;28233;55.748;48.752;2024-02-23T09:18:10;100981.31;;;-5.35;69.33
42603;BME280;28233;55.748;48.752;2024-02-23T09:20:13;100972.56;;;-5.29;69.12
42603;BME280;28233;55.748;48.752;2024-02-23T09:22:16;100971.25;;;-5.33;68.26
42603;BME280;28233;55.748;48.752;2024-02-23T09:24:18;100982.31;;;-5.36;67.45
42603;BME280;28233;55.748;48.752;2024-02-23T09:26:22;100985.66;;;-5.34;67.98
42603;BME280;28233;55.748;48.752;2024-02-23T09:28:24;100982.50;;;-5.38;67.72
42603;BME280;28233;55.748;48.752;2024-02-23T09:30:29;100984.38;;;-5.38;68.50
42603;BME280;28233;55.748;48.752;2024-02-23T09:32:32;100991.38;;;-5.37;67.52
42603;BME280;28233;55.748;48.752;2024-02-23T09:34:35;100988.63;;;-5.29;68.31
42603;BME280;28233;55.748;48.752;2024-02-23T09:36:39;100992.41;;;-5.23;66.75
42603;BME280;28233;55.748;48.752;2024-02-23T09:38:42;100982.91;;;-5.26;66.54
42603;BME280;28233;55.748;48.752;2024-02-23T09:40:46;100982.72;;;-5.24;67.75
42603;BME280;28233;55.748;48.752;2024-02-23T09:42:56;100989.91;;;-5.25;66.12
42603;BME280;28233;55.748;48.752;2024-02-23T09:45:00;100977.66;;;-5.19;67.91
42603;BME280;28233;55.748;48.752;2024-02-23T09:47:05;100990.69;;;-5.16;68.15
42603;BME280;28233;55.748;48.752;2024-02-23T09:49:15;100985.41;;;-5.24;66.52
42603;BME280;28233;55.748;48.752;2024-02-23T09:51:20;100986.59;;;-5.27;66.76
42603;BME280;28233;55.748;48.752;2024-02-23T09:53:26;100993.34;;;-5.31;67.40
42603;BME280;28233;55.748;48.752;2024-02-23T09:55:31;100979.09;;;-5.32;67.23
42603;BME280;28233;55.748;48.752;2024-02-23T09:57:34;100989.09;;;-5.25;67.39
42603;BME280;28233;55.748;48.752;2024-02-23T09:59:38;100980.22;;;-5.26;67.71
42603;BME280;28233;55.748;48.752;2024-02-23T10:01:41;100988.25;;;-5.26;66.16
42603;BME280;28233;55.748;48.752;2024-02-23T10:03:45;100982.25;;;-5.28;67.38
42603;BME280;28233;55.748;48.752;2024-02-23T10:05:48;100992.31;;;-5.30;65.69
42603;BME280;28233;55.748;48.752;2024-02-23T10:07:52;100997.00;;;-5.32;65.38
42603;BME280;28233;55.748;48.752;2024-02-23T10:09:58;100998.38;;;-5.36;66.94
42603;BME280;28233;55.748;48.752;2024-02-23T10:12:04;100996.19;;;-5.33;67.45
42603;BME280;28233;55.748;48.752;2024-02-23T10:14:07;100995.91;;;-5.38;66.01
42603;BME280;28233;55.748;48.752;2024-02-23T10:16:11;100990.16;;;-5.49;65.55
42603;BME280;28233;55.748;48.752;2024-02-23T10:18:17;101002.50;;;-5.48;66.62
42603;BME280;28233;55.748;48.752;2024-02-23T10:20:22;100995.78;;;-5.44;67.25
42603;BME280;28233;55.748;48.752;2024-02-23T10:22:25;101000.66;;;-5.48;65.44
42603;BME280;28233;55.748;48.752;2024-02-23T10:24:28;101000.78;;;-5.41;67.37
42603;BME280;28233;55.748;48.752;2024-02-23T10:26:30;100995.38;;;-5.33;67.75
42603;BME280;28233;55.748;48.752;2024-02-23T10:28:36;100999.94;;;-5.42;64.29
42603;BME280;28233;55.748;48.752;2024-02-23T10:30:41;101003.41;;;-5.33;67.20